createdAt,value
2018-12-20T00:02:19.271Z,5.60
2018-12-20T00:04:45.418Z,5.73
2018-12-20T00:07:11.478Z,5.37
2018-12-20T00:09:37.505Z,5.33
2018-12-20T00:12:03.749Z,5.70
2018-12-20T00:14:30.230Z,6.00
2018-12-20T00:17:02.626Z,5.50
2018-12-20T00:19:28.626Z,5.47
2018-12-20T00:21:54.655Z,5.83
2018-12-20T00:24:20.785Z,5.40
2018-12-20T00:26:46.891Z,5.40
2018-12-20T00:29:12.970Z,5.63
2018-12-20T00:31:39.023Z,5.40
2018-12-20T00:34:05.060Z,6.30
2018-12-20T00:36:31.301Z,5.63
2018-12-20T00:38:57.374Z,6.00
2018-12-20T00:41:23.444Z,5.27
2018-12-20T00:43:49.443Z,5.03
2018-12-20T00:46:15.499Z,5.83
2018-12-20T00:48:41.697Z,5.37
2018-12-20T00:51:07.787Z,5.50
2018-12-20T00:53:33.778Z,5.70
2018-12-20T00:55:59.809Z,5.40
2018-12-20T00:58:26.006Z,5.90
2018-12-20T01:00:52.425Z,5.20
2018-12-20T01:03:18.526Z,4.93
2018-12-20T01:05:44.566Z,5.50
2018-12-20T01:08:10.787Z,5.30
2018-12-20T01:10:36.961Z,5.37
2018-12-20T01:13:03.138Z,5.67
2018-12-20T01:15:29.238Z,5.57
2018-12-20T01:17:55.262Z,4.93
2018-12-20T01:20:21.469Z,5.20
2018-12-20T01:22:47.506Z,4.30
2018-12-20T01:25:13.598Z,5.20
2018-12-20T01:27:39.903Z,4.73
2018-12-20T01:30:06.371Z,4.53
2018-12-20T01:32:32.593Z,4.60
2018-12-20T01:34:58.698Z,4.63
2018-12-20T01:37:24.702Z,4.83
2018-12-20T01:39:51.047Z,5.20
2018-12-20T01:42:17.148Z,4.47
2018-12-20T01:44:43.325Z,4.70
2018-12-20T01:47:09.592Z,4.37
2018-12-20T01:49:35.685Z,4.90
2018-12-20T01:52:01.850Z,4.70
2018-12-20T01:54:28.043Z,4.20
2018-12-20T01:56:54.043Z,4.80
2018-12-20T01:59:20.077Z,3.80
2018-12-20T02:01:46.242Z,3.97
2018-12-20T02:04:12.378Z,4.33
2018-12-20T02:06:38.502Z,4.10
2018-12-20T02:09:06.759Z,4.40
2018-12-20T02:11:33.080Z,4.10
2018-12-20T02:13:59.320Z,3.93
2018-12-20T02:16:25.564Z,3.77
2018-12-20T02:18:51.853Z,3.90
2018-12-20T02:21:18.045Z,3.80
2018-12-20T02:23:44.278Z,3.50
2018-12-20T02:26:10.604Z,3.77
2018-12-20T02:28:36.733Z,3.90
2018-12-20T02:31:03.079Z,3.90
2018-12-20T02:33:29.162Z,3.53
2018-12-20T02:35:55.226Z,3.73
2018-12-20T02:38:21.612Z,3.33
2018-12-20T02:40:47.727Z,3.97
2018-12-20T02:43:13.839Z,3.70
2018-12-20T02:45:40.090Z,3.60
2018-12-20T02:48:06.323Z,3.37
2018-12-20T02:50:32.702Z,3.90
2018-12-20T02:52:58.954Z,3.70
2018-12-20T02:55:24.968Z,3.27
2018-12-20T02:57:51.086Z,3.67
2018-12-20T03:00:17.202Z,3.83
2018-12-20T03:02:43.453Z,3.23
2018-12-20T03:05:09.872Z,3.30
2018-12-20T03:07:36.033Z,3.20
2018-12-20T03:10:02.550Z,3.20
2018-12-20T03:12:28.834Z,3.30
2018-12-20T03:14:55.257Z,3.77
2018-12-20T03:17:21.350Z,3.40
2018-12-20T03:19:47.678Z,3.60
2018-12-20T03:22:14.061Z,3.43
2018-12-20T03:24:40.290Z,3.77
2018-12-20T03:27:06.308Z,3.23
2018-12-20T03:29:32.458Z,3.70
2018-12-20T03:31:58.965Z,3.40
2018-12-20T03:34:25.605Z,3.63
2018-12-20T03:36:51.669Z,3.40
2018-12-20T03:39:17.706Z,3.43
2018-12-20T03:41:43.845Z,3.33
2018-12-20T03:44:10.150Z,3.10
2018-12-20T03:46:36.375Z,3.40
2018-12-20T03:49:03.074Z,3.40
2018-12-20T03:51:30.065Z,3.70
2018-12-20T03:53:56.354Z,3.40
2018-12-20T03:56:22.501Z,3.30
2018-12-20T03:58:48.618Z,3.37
2018-12-20T04:01:14.868Z,3.03
2018-12-20T04:03:41.228Z,3.43
2018-12-20T04:06:07.525Z,3.07
2018-12-20T04:08:33.963Z,3.03
2018-12-20T04:11:00.426Z,3.43
2018-12-20T04:13:26.746Z,3.47
2018-12-20T04:15:52.969Z,3.10
2018-12-20T04:18:19.178Z,3.10
2018-12-20T04:20:45.277Z,3.33
2018-12-20T04:23:11.466Z,3.13
2018-12-20T04:25:37.652Z,2.87
2018-12-20T04:28:03.848Z,3.13
2018-12-20T04:30:30.020Z,3.30
2018-12-20T04:32:56.317Z,3.33
2018-12-20T04:35:22.359Z,3.30
2018-12-20T04:37:48.572Z,3.30
2018-12-20T04:40:15.016Z,3.03
2018-12-20T04:42:41.284Z,2.70
2018-12-20T04:45:07.614Z,2.90
2018-12-20T04:47:33.717Z,3.03
2018-12-20T04:50:00.110Z,3.50
2018-12-20T04:52:26.407Z,3.30
2018-12-20T04:54:52.714Z,3.70
2018-12-20T04:57:18.962Z,3.27
2018-12-20T04:59:45.309Z,3.20
2018-12-20T05:02:11.600Z,3.30
2018-12-20T05:04:38.000Z,3.40
2018-12-20T05:07:04.002Z,3.20
2018-12-20T05:09:30.006Z,3.43
2018-12-20T05:11:56.555Z,3.50
2018-12-20T05:14:22.872Z,4.00
2018-12-20T05:16:48.958Z,3.23
2018-12-20T05:19:15.090Z,3.80
2018-12-20T05:21:41.192Z,3.60
2018-12-20T05:24:07.222Z,3.40
2018-12-20T05:26:33.499Z,3.50
2018-12-20T05:28:59.841Z,3.80
2018-12-20T05:31:25.887Z,3.87
2018-12-20T05:33:52.159Z,3.70
2018-12-20T05:36:18.314Z,3.80
2018-12-20T05:38:44.318Z,3.80
2018-12-20T05:41:10.336Z,3.73
2018-12-20T05:43:36.343Z,3.80
2018-12-20T05:46:04.629Z,4.03
2018-12-20T05:48:30.792Z,4.20
2018-12-20T05:50:56.915Z,3.70
2018-12-20T05:53:23.558Z,4.40
2018-12-20T05:55:49.655Z,3.97
2018-12-20T05:58:15.675Z,4.10
2018-12-20T06:00:41.703Z,4.40
2018-12-20T06:03:14.831Z,4.37
2018-12-20T06:05:40.998Z,3.73
2018-12-20T06:08:07.125Z,4.07
2018-12-20T06:10:33.303Z,3.60
2018-12-20T06:12:59.557Z,4.33
2018-12-20T06:15:25.696Z,4.47
2018-12-20T06:17:51.874Z,4.23
2018-12-20T06:20:17.929Z,4.37
2018-12-20T06:22:43.934Z,3.90
2018-12-20T06:25:09.944Z,3.90
2018-12-20T06:27:35.962Z,4.30
2018-12-20T06:30:04.185Z,4.43
2018-12-20T06:32:30.212Z,4.77
2018-12-20T06:34:56.215Z,4.00
2018-12-20T06:37:22.223Z,5.00
2018-12-20T06:39:48.269Z,3.70
2018-12-20T06:42:14.282Z,4.30
2018-12-20T06:44:40.406Z,4.10
2018-12-20T06:47:06.409Z,4.10
2018-12-20T06:49:32.528Z,4.10
2018-12-20T06:51:58.850Z,3.70
2018-12-20T06:54:24.856Z,4.00
2018-12-20T06:56:50.879Z,4.03
2018-12-20T06:59:16.909Z,4.37
2018-12-20T07:01:42.922Z,4.13
2018-12-20T07:04:08.930Z,4.53
2018-12-20T07:06:34.978Z,3.83
2018-12-20T07:09:00.967Z,4.10
2018-12-20T07:11:26.991Z,4.40
2018-12-20T07:13:53.012Z,4.00
2018-12-20T07:16:19.010Z,4.60
2018-12-20T07:18:52.047Z,3.70
2018-12-20T07:21:18.065Z,3.93
2018-12-20T07:23:44.066Z,4.00
2018-12-20T07:26:10.075Z,3.90
2018-12-20T07:28:36.075Z,4.60
2018-12-20T07:31:02.078Z,3.73
2018-12-20T07:33:28.094Z,3.80
2018-12-20T07:35:54.218Z,4.40
2018-12-20T07:38:20.250Z,4.10
2018-12-20T07:40:46.247Z,3.90
2018-12-20T07:43:12.250Z,4.07
2018-12-20T07:45:38.270Z,4.07
2018-12-20T07:48:04.276Z,4.40
2018-12-20T07:50:30.279Z,4.20
2018-12-20T07:52:56.305Z,3.93
2018-12-20T07:55:22.499Z,4.40
2018-12-20T07:57:48.732Z,4.57
2018-12-20T08:00:14.845Z,4.00
2018-12-20T08:02:40.846Z,4.40
2018-12-20T08:05:07.078Z,4.20
2018-12-20T08:07:33.075Z,4.60
2018-12-20T08:09:59.075Z,5.00
2018-12-20T08:12:25.079Z,4.10
2018-12-20T08:14:51.106Z,4.73
2018-12-20T08:17:17.103Z,4.13
2018-12-20T08:19:43.115Z,3.93
2018-12-20T08:22:09.191Z,3.97
2018-12-20T08:24:35.202Z,3.83
2018-12-20T08:27:01.216Z,4.00
2018-12-20T08:29:27.382Z,4.40
2018-12-20T08:31:53.386Z,4.17
2018-12-20T08:34:19.406Z,4.33
2018-12-20T08:36:45.414Z,3.97
2018-12-20T08:39:11.417Z,3.60
2018-12-20T08:41:37.447Z,3.73
2018-12-20T08:44:03.566Z,3.80
2018-12-20T08:46:31.677Z,3.97
2018-12-20T08:48:57.721Z,4.37
2018-12-20T08:51:23.743Z,3.90
2018-12-20T08:53:49.768Z,3.90
2018-12-20T08:56:15.774Z,3.90
2018-12-20T08:58:41.780Z,3.53
2018-12-20T09:01:08.187Z,4.40
2018-12-20T09:03:34.311Z,4.00
2018-12-20T09:06:00.323Z,4.13
2018-12-20T09:08:26.453Z,4.30
2018-12-20T09:10:52.578Z,3.80
2018-12-20T09:13:18.699Z,3.93
2018-12-20T09:15:44.842Z,3.80
2018-12-20T09:18:10.986Z,3.93
2018-12-20T09:20:36.998Z,4.33
2018-12-20T09:23:03.131Z,3.90
2018-12-20T09:25:29.171Z,3.77
2018-12-20T09:27:55.182Z,4.83
2018-12-20T09:30:21.213Z,4.10
2018-12-20T09:32:47.230Z,4.83
2018-12-20T09:35:13.255Z,3.90
2018-12-20T09:37:39.278Z,4.03
2018-12-20T09:40:05.527Z,4.27
2018-12-20T09:42:31.718Z,4.27
2018-12-20T09:44:57.733Z,4.10
2018-12-20T09:47:29.772Z,4.40
2018-12-20T09:50:04.911Z,5.30
2018-12-20T09:52:30.928Z,4.60
2018-12-20T09:54:56.936Z,4.87
2018-12-20T09:57:22.960Z,4.33
2018-12-20T09:59:48.970Z,4.30
2018-12-20T10:02:14.968Z,4.33
2018-12-20T10:04:40.977Z,4.27
2018-12-20T10:07:06.982Z,4.43
2018-12-20T10:09:32.995Z,4.47
2018-12-20T10:11:59.022Z,3.77
2018-12-20T10:14:25.143Z,4.10
2018-12-20T10:16:51.266Z,3.93
2018-12-20T10:19:17.304Z,3.60
2018-12-20T10:21:43.336Z,3.80
2018-12-20T10:24:09.332Z,4.23
2018-12-20T10:26:35.340Z,3.87
2018-12-20T10:29:01.350Z,3.97
2018-12-20T10:31:27.365Z,4.23
2018-12-20T10:33:53.379Z,4.00
2018-12-20T10:36:19.412Z,3.93
2018-12-20T10:38:45.431Z,4.30
2018-12-20T10:41:11.446Z,3.90
2018-12-20T10:43:37.472Z,4.43
2018-12-20T10:46:03.622Z,4.27
2018-12-20T10:48:29.635Z,4.10
2018-12-20T10:50:55.669Z,4.03
2018-12-20T10:53:21.673Z,4.03
2018-12-20T10:55:47.752Z,3.83
2018-12-20T10:58:13.781Z,4.67
2018-12-20T11:00:46.058Z,4.00
2018-12-20T11:03:18.086Z,3.70
2018-12-20T11:05:50.418Z,3.80
2018-12-20T11:08:21.884Z,4.93
2018-12-20T11:10:49.923Z,4.17
2018-12-20T11:13:22.258Z,4.20
2018-12-20T11:15:48.298Z,3.90
2018-12-20T11:18:14.407Z,3.67
2018-12-20T11:20:40.541Z,4.07
2018-12-20T11:23:06.679Z,3.40
2018-12-20T11:25:32.698Z,3.80
2018-12-20T11:27:58.728Z,3.87
2018-12-20T11:30:24.826Z,4.20
2018-12-20T11:32:50.843Z,4.57
2018-12-20T11:35:16.984Z,3.80
2018-12-20T11:37:43.017Z,4.10
2018-12-20T11:40:09.129Z,3.40
2018-12-20T11:42:35.374Z,4.27
2018-12-20T11:45:01.508Z,4.53
2018-12-20T11:47:28.244Z,4.17
2018-12-20T11:49:54.298Z,3.67
2018-12-20T11:52:20.306Z,3.90
2018-12-20T11:54:46.311Z,3.77
2018-12-20T11:57:12.438Z,4.13
2018-12-20T11:59:38.462Z,3.83
2018-12-20T12:02:04.479Z,3.70
2018-12-20T12:04:30.500Z,3.90
2018-12-20T12:06:56.526Z,4.27
2018-12-20T12:09:22.541Z,3.60
2018-12-20T12:11:48.558Z,4.73
2018-12-20T12:14:14.582Z,3.53
2018-12-20T12:16:40.706Z,4.10
2018-12-20T12:19:06.745Z,3.97
2018-12-20T12:21:39.678Z,4.20
2018-12-20T12:24:05.726Z,3.40
2018-12-20T12:26:31.746Z,4.07
2018-12-20T12:28:57.819Z,4.20
2018-12-20T12:31:23.848Z,3.87
2018-12-20T12:33:50.012Z,3.80
2018-12-20T12:36:16.082Z,4.30
2018-12-20T12:38:42.219Z,4.13
2018-12-20T12:41:08.242Z,3.90
2018-12-20T12:43:34.282Z,4.10
2018-12-20T12:46:00.316Z,4.30
2018-12-20T12:48:26.354Z,4.43
2018-12-20T12:50:52.399Z,4.40
2018-12-20T12:53:19.818Z,4.83
2018-12-20T12:55:45.835Z,4.73
2018-12-20T12:58:11.858Z,4.00
2018-12-20T13:00:38.086Z,4.50
2018-12-20T13:03:04.131Z,4.47
2018-12-20T13:05:30.142Z,4.20
2018-12-20T13:07:56.194Z,4.10
2018-12-20T13:10:22.215Z,4.10
2018-12-20T13:12:48.243Z,4.20
2018-12-20T13:15:14.279Z,4.23
2018-12-20T13:17:40.298Z,4.47
2018-12-20T13:20:08.143Z,4.00
2018-12-20T13:22:34.174Z,3.87
2018-12-20T13:25:00.306Z,4.63
2018-12-20T13:27:26.756Z,4.23
2018-12-20T13:29:52.790Z,3.57
2018-12-20T13:32:18.786Z,3.67
2018-12-20T13:34:44.806Z,4.00
2018-12-20T13:37:15.819Z,4.07
2018-12-20T13:39:39.099Z,4.63
2018-12-20T13:42:05.329Z,4.00
2018-12-20T13:44:31.339Z,4.80
2018-12-20T13:46:57.373Z,4.90
2018-12-20T13:49:23.523Z,5.17
2018-12-20T13:51:49.537Z,4.67
2018-12-20T13:54:15.568Z,4.00
2018-12-20T13:56:41.596Z,4.90
2018-12-20T13:59:07.630Z,3.90
2018-12-20T14:01:33.639Z,4.10
2018-12-20T14:03:59.659Z,4.13
2018-12-20T14:06:25.781Z,4.37
2018-12-20T14:08:51.891Z,3.83
2018-12-20T14:13:50.768Z,4.40
2018-12-20T14:16:16.791Z,4.50
2018-12-20T14:18:43.134Z,4.07
2018-12-20T14:21:09.615Z,3.73
2018-12-20T14:23:35.618Z,4.23
2018-12-20T14:26:01.864Z,3.73
2018-12-20T14:28:27.912Z,3.60
2018-12-20T14:30:53.941Z,3.87
2018-12-20T14:33:19.963Z,3.70
2018-12-20T14:35:45.991Z,4.10
2018-12-20T14:38:12.596Z,3.63
2018-12-20T14:40:38.626Z,3.90
2018-12-20T14:43:04.751Z,3.70
2018-12-20T14:45:30.885Z,4.00
2018-12-20T14:47:56.930Z,3.57
2018-12-20T14:50:22.940Z,3.87
2018-12-20T14:52:49.051Z,3.73
2018-12-20T14:55:15.063Z,4.20
2018-12-20T14:57:41.078Z,4.00
2018-12-20T15:00:15.664Z,5.27
2018-12-20T15:02:41.665Z,3.90
2018-12-20T15:05:07.699Z,3.83
2018-12-20T15:07:33.854Z,3.53
2018-12-20T15:09:59.867Z,4.07
2018-12-20T15:12:25.875Z,4.00
2018-12-20T15:14:52.003Z,4.47
2018-12-20T15:17:18.016Z,3.93
2018-12-20T15:19:44.139Z,4.57
2018-12-20T15:22:10.308Z,3.47
2018-12-20T15:24:36.332Z,3.90
2018-12-20T15:27:02.459Z,4.50
2018-12-20T15:29:28.481Z,4.30
2018-12-20T15:31:54.491Z,4.10
2018-12-20T15:34:20.606Z,3.90
2018-12-20T15:36:46.838Z,3.67
2018-12-20T15:39:13.165Z,4.30
2018-12-20T15:41:39.300Z,3.93
2018-12-20T15:44:05.438Z,4.53
2018-12-20T15:46:31.727Z,4.57
2018-12-20T15:49:03.653Z,4.40
2018-12-20T15:51:31.294Z,4.27
2018-12-20T15:53:57.610Z,4.60
2018-12-20T15:56:23.761Z,4.33
2018-12-20T15:58:49.776Z,4.27
2018-12-20T16:01:15.778Z,4.13
2018-12-20T16:03:42.146Z,4.33
2018-12-20T16:06:08.368Z,4.10
2018-12-20T16:08:34.487Z,4.40
2018-12-20T16:11:00.616Z,3.97
2018-12-20T16:13:32.476Z,4.50
2018-12-20T16:15:58.471Z,4.23
2018-12-20T16:18:24.495Z,4.43
2018-12-20T16:20:50.534Z,4.33
2018-12-20T16:23:16.779Z,4.53
2018-12-20T16:25:42.787Z,4.37
2018-12-20T16:28:08.894Z,4.83
2018-12-20T16:30:35.767Z,5.73
2018-12-20T16:33:01.769Z,4.40
2018-12-20T16:35:27.766Z,4.30
2018-12-20T16:37:53.899Z,4.17
2018-12-20T16:40:19.898Z,4.00
2018-12-20T16:42:45.947Z,3.90
2018-12-20T16:45:11.966Z,3.60
2018-12-20T16:47:37.975Z,4.27
2018-12-20T16:50:05.105Z,5.07
2018-12-20T16:52:31.110Z,4.33
2018-12-20T16:54:57.114Z,4.40
2018-12-20T16:57:23.127Z,3.83
2018-12-20T16:59:49.166Z,4.03
2018-12-20T17:02:15.284Z,4.40
2018-12-20T17:04:41.308Z,4.07
2018-12-20T17:07:07.426Z,4.23
2018-12-20T17:09:33.453Z,4.23
2018-12-20T17:11:59.464Z,3.90
2018-12-20T17:14:25.566Z,4.03
2018-12-20T17:16:51.714Z,3.73
2018-12-20T17:19:22.055Z,3.30
2018-12-20T17:21:45.870Z,4.30
2018-12-20T17:24:11.986Z,4.40
2018-12-20T17:26:38.107Z,4.03
2018-12-20T17:29:04.225Z,3.57
2018-12-20T17:31:30.261Z,3.83
2018-12-20T17:33:56.406Z,3.97
2018-12-20T17:36:22.419Z,3.93
2018-12-20T17:38:48.415Z,3.63
2018-12-20T17:41:14.739Z,4.63
2018-12-20T17:43:40.747Z,4.50
2018-12-20T17:46:06.766Z,4.47
2018-12-20T17:48:32.832Z,3.80
2018-12-20T17:50:58.862Z,4.00
2018-12-20T17:53:31.906Z,3.60
2018-12-20T17:55:57.921Z,4.07
2018-12-20T17:58:24.379Z,4.43
2018-12-20T18:00:50.497Z,4.13
2018-12-20T18:03:16.554Z,4.70
2018-12-20T18:05:43.094Z,4.83
2018-12-20T18:08:09.386Z,5.40
2018-12-20T18:10:35.408Z,6.43
2018-12-20T18:13:01.434Z,4.70
2018-12-20T18:15:27.601Z,5.00
2018-12-20T18:17:53.623Z,5.23
2018-12-20T18:20:19.637Z,5.50
2018-12-20T18:22:45.942Z,5.13
2018-12-20T18:25:11.966Z,4.93
2018-12-20T18:27:38.170Z,5.00
2018-12-20T18:30:07.511Z,4.83
2018-12-20T18:32:33.673Z,5.20
2018-12-20T18:34:59.684Z,5.07
2018-12-20T18:37:25.691Z,5.83
2018-12-20T18:39:51.754Z,5.30
2018-12-20T18:42:17.983Z,4.57
2018-12-20T18:44:43.990Z,5.37
2018-12-20T18:47:10.123Z,5.50
2018-12-20T18:49:36.132Z,5.57
2018-12-20T18:52:02.374Z,4.83
2018-12-20T18:54:28.398Z,5.60
2018-12-20T18:56:54.408Z,4.77
2018-12-20T18:59:20.428Z,6.03
2018-12-20T19:01:47.434Z,6.07
2018-12-20T19:04:13.453Z,5.70
2018-12-20T19:06:46.503Z,5.43
2018-12-20T19:09:12.531Z,5.33
2018-12-20T19:11:38.529Z,5.73
2018-12-20T19:14:04.551Z,5.67
2018-12-20T19:16:30.559Z,5.70
2018-12-20T19:18:56.566Z,5.53
2018-12-20T19:21:22.562Z,5.70
2018-12-20T19:23:48.586Z,5.80
2018-12-20T19:26:14.602Z,5.50
2018-12-20T19:28:40.618Z,5.97
2018-12-20T19:31:06.722Z,5.63
2018-12-20T19:33:32.728Z,5.67
2018-12-20T19:35:58.746Z,5.47
2018-12-20T19:38:24.768Z,5.40
2018-12-20T19:40:50.785Z,6.40
2018-12-20T19:43:16.908Z,6.00
2018-12-20T19:45:46.153Z,5.53
2018-12-20T19:48:10.938Z,5.37
2018-12-20T19:50:36.967Z,6.87
2018-12-20T19:53:02.994Z,5.40
2018-12-20T19:55:29.106Z,5.80
2018-12-20T19:57:55.130Z,5.93
2018-12-20T20:00:21.150Z,6.17
2018-12-20T20:02:47.154Z,5.97
2018-12-20T20:05:13.158Z,5.80
2018-12-20T20:07:39.171Z,5.83
2018-12-20T20:10:07.988Z,6.03
2018-12-20T20:12:34.119Z,5.93
2018-12-20T20:15:00.143Z,6.23
2018-12-20T20:17:26.170Z,5.50
2018-12-20T20:19:59.571Z,5.87
2018-12-20T20:22:27.270Z,5.90
2018-12-20T20:24:53.287Z,5.80
2018-12-20T20:27:19.299Z,5.77
2018-12-20T20:29:45.335Z,5.33
2018-12-20T20:32:11.335Z,5.27
2018-12-20T20:34:37.347Z,5.00
2018-12-20T20:37:03.491Z,5.00
2018-12-20T20:39:29.500Z,5.53
2018-12-20T20:41:55.524Z,5.47
2018-12-20T20:44:21.540Z,6.07
2018-12-20T20:46:47.659Z,5.53
2018-12-20T20:49:13.670Z,4.83
2018-12-20T20:51:39.848Z,5.27
2018-12-20T20:54:05.844Z,4.87
2018-12-20T20:56:31.839Z,5.53
2018-12-20T20:58:57.858Z,4.40
2018-12-20T21:01:23.886Z,5.17
2018-12-20T21:04:03.511Z,5.03
2018-12-20T21:06:25.090Z,5.53
2018-12-20T21:08:51.087Z,5.13
2018-12-20T21:11:17.115Z,4.83
2018-12-20T21:13:43.343Z,5.03
2018-12-20T21:16:09.365Z,4.40
2018-12-20T21:18:35.499Z,5.63
2018-12-20T21:21:01.525Z,5.00
2018-12-20T21:23:27.637Z,5.10
2018-12-20T21:25:53.684Z,5.17
2018-12-20T21:28:19.690Z,5.70
2018-12-20T21:30:45.692Z,5.13
2018-12-20T21:33:11.933Z,5.57
2018-12-20T21:35:38.042Z,5.13
2018-12-20T21:38:11.123Z,4.90
2018-12-20T21:40:37.230Z,4.97
2018-12-20T21:43:03.246Z,4.47
2018-12-20T21:45:29.335Z,5.27
2018-12-20T21:47:55.402Z,4.53
2018-12-20T21:50:21.518Z,4.60
2018-12-20T21:52:47.535Z,4.97
2018-12-20T21:55:13.534Z,5.07
2018-12-20T21:57:39.530Z,5.03
2018-12-20T22:00:08.611Z,5.03
2018-12-20T22:02:35.169Z,6.07
2018-12-20T22:05:01.443Z,5.30
2018-12-20T22:07:27.462Z,4.80
2018-12-20T22:09:53.812Z,6.03
2018-12-20T22:12:19.821Z,5.53
2018-12-20T22:14:45.814Z,5.30
2018-12-20T22:17:12.183Z,5.30
2018-12-20T22:19:38.315Z,4.77
2018-12-20T22:22:04.444Z,5.00
2018-12-20T22:24:30.599Z,5.27
2018-12-20T22:26:56.654Z,5.27
2018-12-20T22:29:22.655Z,4.90
2018-12-20T22:31:49.048Z,4.97
2018-12-20T22:34:15.047Z,5.50
2018-12-20T22:36:41.061Z,5.20
2018-12-20T22:39:07.079Z,4.57
2018-12-20T22:41:33.203Z,4.90
2018-12-20T22:43:59.611Z,4.63
2018-12-20T22:46:25.731Z,4.70
2018-12-20T22:48:51.876Z,5.00
2018-12-20T22:51:17.901Z,4.57
2018-12-20T22:53:43.908Z,4.53
2018-12-20T22:56:09.927Z,4.67
2018-12-20T22:58:35.970Z,4.60
2018-12-20T23:01:03.611Z,4.37
2018-12-20T23:03:29.851Z,4.30
2018-12-20T23:05:55.966Z,5.00
2018-12-20T23:08:22.187Z,4.63
2018-12-20T23:10:48.196Z,4.07
2018-12-20T23:13:14.216Z,3.90
2018-12-20T23:15:40.370Z,4.47
2018-12-20T23:18:06.401Z,4.00
2018-12-20T23:20:32.413Z,3.77
2018-12-20T23:22:58.426Z,4.13
2018-12-20T23:25:24.447Z,4.10
2018-12-20T23:27:50.450Z,3.60
2018-12-20T23:30:16.458Z,4.80
2018-12-20T23:32:42.687Z,3.93
2018-12-20T23:35:08.806Z,3.77
2018-12-20T23:37:34.805Z,4.03
2018-12-20T23:40:00.922Z,4.70
2018-12-20T23:42:26.922Z,3.63
2018-12-20T23:44:52.934Z,3.57
2018-12-20T23:47:18.930Z,3.50
2018-12-20T23:49:44.963Z,3.60
2018-12-20T23:52:11.078Z,3.93
2018-12-20T23:54:37.195Z,3.43
2018-12-20T23:57:03.225Z,4.17
2018-12-20T23:59:29.222Z,3.97
